sensor_id;sensor_type;location;lat;lon;timestamp;P1;durP1;ratioP1;P2;durP2;ratioP2
33162;SDS011;29282;45.656;11.302;2022-12-11T00:00:36;3.55;;;3.13;;
33162;SDS011;29282;45.656;11.302;2022-12-11T00:03:05;3.90;;;3.00;;
33162;SDS011;29282;45.656;11.302;2022-12-11T00:05:31;3.15;;;2.85;;
33162;SDS011;29282;45.656;11.302;2022-12-11T00:07:56;4.18;;;3.28;;
33162;SDS011;29282;45.656;11.302;2022-12-11T00:10:23;3.60;;;3.10;;
33162;SDS011;29282;45.656;11.302;2022-12-11T00:12:48;3.97;;;3.08;;
33162;SDS011;29282;45.656;11.302;2022-12-11T00:15:14;3.30;;;2.85;;
33162;SDS011;29282;45.656;11.302;2022-12-11T00:17:40;3.08;;;2.78;;
33162;SDS011;29282;45.656;11.302;2022-12-11T00:20:06;3.88;;;2.78;;
33162;SDS011;29282;45.656;11.302;2022-12-11T00:22:32;3.17;;;2.85;;
33162;SDS011;29282;45.656;11.302;2022-12-11T00:24:58;3.25;;;2.90;;
33162;SDS011;29282;45.656;11.302;2022-12-11T00:27:23;3.45;;;3.15;;
33162;SDS011;29282;45.656;11.302;2022-12-11T00:29:49;2.90;;;2.70;;
33162;SDS011;29282;45.656;11.302;2022-12-11T00:32:14;3.50;;;2.67;;
33162;SDS011;29282;45.656;11.302;2022-12-11T00:34:40;2.90;;;2.60;;
33162;SDS011;29282;45.656;11.302;2022-12-11T00:37:05;3.63;;;2.92;;
33162;SDS011;29282;45.656;11.302;2022-12-11T00:39:31;2.63;;;2.42;;
33162;SDS011;29282;45.656;11.302;2022-12-11T00:41:56;3.40;;;2.80;;
33162;SDS011;29282;45.656;11.302;2022-12-11T00:44:22;2.75;;;2.55;;
33162;SDS011;29282;45.656;11.302;2022-12-11T00:46:48;3.63;;;2.95;;
33162;SDS011;29282;45.656;11.302;2022-12-11T00:49:13;2.80;;;2.60;;
33162;SDS011;29282;45.656;11.302;2022-12-11T00:51:39;3.47;;;2.85;;
33162;SDS011;29282;45.656;11.302;2022-12-11T00:54:04;2.45;;;2.25;;
33162;SDS011;29282;45.656;11.302;2022-12-11T00:56:30;3.35;;;2.70;;
33162;SDS011;29282;45.656;11.302;2022-12-11T00:58:56;3.15;;;2.80;;
33162;SDS011;29282;45.656;11.302;2022-12-11T01:01:22;3.10;;;2.80;;
33162;SDS011;29282;45.656;11.302;2022-12-11T01:03:49;2.85;;;2.60;;
33162;SDS011;29282;45.656;11.302;2022-12-11T01:06:17;2.95;;;2.60;;
33162;SDS011;29282;45.656;11.302;2022-12-11T01:08:44;2.88;;;2.50;;
33162;SDS011;29282;45.656;11.302;2022-12-11T01:11:12;2.67;;;2.25;;
33162;SDS011;29282;45.656;11.302;2022-12-11T01:13:39;2.92;;;2.63;;
33162;SDS011;29282;45.656;11.302;2022-12-11T01:16:06;3.03;;;2.60;;
33162;SDS011;29282;45.656;11.302;2022-12-11T01:18:33;2.38;;;2.15;;
33162;SDS011;29282;45.656;11.302;2022-12-11T01:21:01;3.00;;;2.47;;
33162;SDS011;29282;45.656;11.302;2022-12-11T01:23:30;2.80;;;2.60;;
33162;SDS011;29282;45.656;11.302;2022-12-11T01:25:55;2.80;;;2.40;;
33162;SDS011;29282;45.656;11.302;2022-12-11T01:28:21;2.63;;;2.38;;
33162;SDS011;29282;45.656;11.302;2022-12-11T01:30:46;3.17;;;2.70;;
33162;SDS011;29282;45.656;11.302;2022-12-11T01:33:12;3.97;;;2.63;;
33162;SDS011;29282;45.656;11.302;2022-12-11T01:35:38;3.15;;;2.30;;
33162;SDS011;29282;45.656;11.302;2022-12-11T01:38:03;2.92;;;2.20;;
33162;SDS011;29282;45.656;11.302;2022-12-11T01:40:29;2.90;;;2.60;;
33162;SDS011;29282;45.656;11.302;2022-12-11T01:42:54;3.45;;;2.45;;
33162;SDS011;29282;45.656;11.302;2022-12-11T01:47:46;2.42;;;2.22;;
33162;SDS011;29282;45.656;11.302;2022-12-11T01:50:13;2.80;;;2.60;;
33162;SDS011;29282;45.656;11.302;2022-12-11T01:52:39;3.05;;;2.65;;
33162;SDS011;29282;45.656;11.302;2022-12-11T01:55:06;3.30;;;2.45;;
33162;SDS011;29282;45.656;11.302;2022-12-11T01:57:33;3.00;;;2.70;;
33162;SDS011;29282;45.656;11.302;2022-12-11T02:00:02;2.50;;;2.30;;
33162;SDS011;29282;45.656;11.302;2022-12-11T02:02:29;2.55;;;2.28;;
33162;SDS011;29282;45.656;11.302;2022-12-11T02:04:57;2.58;;;2.38;;
33162;SDS011;29282;45.656;11.302;2022-12-11T02:07:34;2.88;;;2.60;;
33162;SDS011;29282;45.656;11.302;2022-12-11T02:10:04;2.25;;;2.05;;
33162;SDS011;29282;45.656;11.302;2022-12-11T02:12:33;2.30;;;2.03;;
33162;SDS011;29282;45.656;11.302;2022-12-11T02:15:11;2.40;;;2.20;;
33162;SDS011;29282;45.656;11.302;2022-12-11T02:17:47;2.72;;;2.38;;
33162;SDS011;29282;45.656;11.302;2022-12-11T02:20:35;2.60;;;2.22;;
33162;SDS011;29282;45.656;11.302;2022-12-11T02:31:11;3.33;;;2.33;;
33162;SDS011;29282;45.656;11.302;2022-12-11T02:36:34;2.70;;;2.40;;
33162;SDS011;29282;45.656;11.302;2022-12-11T02:39:04;2.30;;;2.03;;
33162;SDS011;29282;45.656;11.302;2022-12-11T02:41:33;2.15;;;1.95;;
33162;SDS011;29282;45.656;11.302;2022-12-11T02:44:00;3.72;;;2.33;;
33162;SDS011;29282;45.656;11.302;2022-12-11T02:46:27;2.30;;;2.10;;
33162;SDS011;29282;45.656;11.302;2022-12-11T02:48:55;2.33;;;2.10;;
33162;SDS011;29282;45.656;11.302;2022-12-11T02:51:28;2.40;;;2.20;;
33162;SDS011;29282;45.656;11.302;2022-12-11T02:53:57;2.63;;;2.15;;
33162;SDS011;29282;45.656;11.302;2022-12-11T02:56:32;2.53;;;2.20;;
33162;SDS011;29282;45.656;11.302;2022-12-11T02:59:08;2.95;;;2.25;;
33162;SDS011;29282;45.656;11.302;2022-12-11T03:01:38;2.20;;;2.00;;
33162;SDS011;29282;45.656;11.302;2022-12-11T03:04:03;2.25;;;2.05;;
33162;SDS011;29282;45.656;11.302;2022-12-11T03:06:36;2.10;;;2.00;;
33162;SDS011;29282;45.656;11.302;2022-12-11T03:09:06;2.22;;;2.03;;
33162;SDS011;29282;45.656;11.302;2022-12-11T03:11:32;2.50;;;2.30;;
33162;SDS011;29282;45.656;11.302;2022-12-11T03:13:57;2.00;;;1.80;;
33162;SDS011;29282;45.656;11.302;2022-12-11T03:16:33;2.63;;;2.30;;
33162;SDS011;29282;45.656;11.302;2022-12-11T03:25:08;2.80;;;2.25;;
33162;SDS011;29282;45.656;11.302;2022-12-11T03:27:33;2.08;;;1.90;;
33162;SDS011;29282;45.656;11.302;2022-12-11T03:30:07;2.67;;;2.00;;
33162;SDS011;29282;45.656;11.302;2022-12-11T03:32:46;2.35;;;2.13;;
33162;SDS011;29282;45.656;11.302;2022-12-11T03:35:20;2.03;;;1.83;;
33162;SDS011;29282;45.656;11.302;2022-12-11T03:37:47;2.30;;;2.10;;
33162;SDS011;29282;45.656;11.302;2022-12-11T03:40:16;2.20;;;2.00;;
33162;SDS011;29282;45.656;11.302;2022-12-11T03:42:45;2.30;;;2.10;;
33162;SDS011;29282;45.656;11.302;2022-12-11T03:45:13;2.08;;;1.98;;
33162;SDS011;29282;45.656;11.302;2022-12-11T03:47:41;3.15;;;2.22;;
33162;SDS011;29282;45.656;11.302;2022-12-11T03:50:09;1.90;;;1.80;;
33162;SDS011;29282;45.656;11.302;2022-12-11T03:52:39;2.38;;;2.13;;
33162;SDS011;29282;45.656;11.302;2022-12-11T03:55:07;2.30;;;2.10;;
33162;SDS011;29282;45.656;11.302;2022-12-11T03:57:35;2.35;;;2.00;;
33162;SDS011;29282;45.656;11.302;2022-12-11T04:00:05;2.38;;;2.15;;
33162;SDS011;29282;45.656;11.302;2022-12-11T04:05:02;2.75;;;1.98;;
33162;SDS011;29282;45.656;11.302;2022-12-11T04:07:27;2.38;;;2.17;;
33162;SDS011;29282;45.656;11.302;2022-12-11T04:09:55;2.10;;;1.90;;
33162;SDS011;29282;45.656;11.302;2022-12-11T04:12:21;2.20;;;2.00;;
33162;SDS011;29282;45.656;11.302;2022-12-11T04:14:46;1.98;;;1.77;;
33162;SDS011;29282;45.656;11.302;2022-12-11T04:17:28;1.90;;;1.80;;
33162;SDS011;29282;45.656;11.302;2022-12-11T04:20:17;2.22;;;2.03;;
33162;SDS011;29282;45.656;11.302;2022-12-11T04:23:10;2.80;;;2.30;;
33162;SDS011;29282;45.656;11.302;2022-12-11T04:28:48;2.28;;;2.03;;
33162;SDS011;29282;45.656;11.302;2022-12-11T04:31:16;2.17;;;1.98;;
33162;SDS011;29282;45.656;11.302;2022-12-11T04:33:43;2.80;;;1.90;;
33162;SDS011;29282;45.656;11.302;2022-12-11T04:36:09;1.92;;;1.73;;
33162;SDS011;29282;45.656;11.302;2022-12-11T04:38:35;2.00;;;1.80;;
33162;SDS011;29282;45.656;11.302;2022-12-11T04:41:03;2.10;;;1.88;;
33162;SDS011;29282;45.656;11.302;2022-12-11T04:43:30;2.28;;;2.08;;
33162;SDS011;29282;45.656;11.302;2022-12-11T04:45:59;1.80;;;1.70;;
33162;SDS011;29282;45.656;11.302;2022-12-11T04:48:29;2.33;;;2.08;;
33162;SDS011;29282;45.656;11.302;2022-12-11T04:50:54;2.47;;;1.88;;
33162;SDS011;29282;45.656;11.302;2022-12-11T04:53:19;1.80;;;1.70;;
33162;SDS011;29282;45.656;11.302;2022-12-11T04:55:45;1.98;;;1.77;;
33162;SDS011;29282;45.656;11.302;2022-12-11T04:58:11;2.10;;;1.90;;
33162;SDS011;29282;45.656;11.302;2022-12-11T05:00:38;1.80;;;1.70;;
33162;SDS011;29282;45.656;11.302;2022-12-11T05:03:04;2.00;;;1.80;;
33162;SDS011;29282;45.656;11.302;2022-12-11T05:05:30;2.70;;;1.77;;
33162;SDS011;29282;45.656;11.302;2022-12-11T05:07:55;2.13;;;1.92;;
33162;SDS011;29282;45.656;11.302;2022-12-11T05:10:21;2.28;;;2.08;;
33162;SDS011;29282;45.656;11.302;2022-12-11T05:12:47;2.22;;;2.00;;
33162;SDS011;29282;45.656;11.302;2022-12-11T05:15:12;1.80;;;1.70;;
33162;SDS011;29282;45.656;11.302;2022-12-11T05:17:38;1.92;;;1.73;;
33162;SDS011;29282;45.656;11.302;2022-12-11T05:20:04;1.80;;;1.70;;
33162;SDS011;29282;45.656;11.302;2022-12-11T05:22:30;1.90;;;1.75;;
33162;SDS011;29282;45.656;11.302;2022-12-11T05:24:56;1.85;;;1.75;;
33162;SDS011;29282;45.656;11.302;2022-12-11T05:27:21;1.70;;;1.60;;
33162;SDS011;29282;45.656;11.302;2022-12-11T05:29:47;2.05;;;1.85;;
33162;SDS011;29282;45.656;11.302;2022-12-11T05:32:12;2.13;;;1.92;;
33162;SDS011;29282;45.656;11.302;2022-12-11T05:34:38;2.03;;;1.83;;
33162;SDS011;29282;45.656;11.302;2022-12-11T05:37:03;1.83;;;1.65;;
33162;SDS011;29282;45.656;11.302;2022-12-11T05:39:29;2.42;;;1.98;;
33162;SDS011;29282;45.656;11.302;2022-12-11T05:41:55;2.20;;;1.80;;
33162;SDS011;29282;45.656;11.302;2022-12-11T05:44:20;1.83;;;1.58;;
33162;SDS011;29282;45.656;11.302;2022-12-11T05:46:46;1.80;;;1.70;;
33162;SDS011;29282;45.656;11.302;2022-12-11T05:49:12;1.90;;;1.70;;
33162;SDS011;29282;45.656;11.302;2022-12-11T05:51:37;2.83;;;1.98;;
33162;SDS011;29282;45.656;11.302;2022-12-11T05:54:03;1.77;;;1.63;;
33162;SDS011;29282;45.656;11.302;2022-12-11T05:56:30;1.70;;;1.60;;
33162;SDS011;29282;45.656;11.302;2022-12-11T05:58:57;2.42;;;1.85;;
33162;SDS011;29282;45.656;11.302;2022-12-11T06:01:24;2.13;;;1.92;;
33162;SDS011;29282;45.656;11.302;2022-12-11T06:03:55;1.70;;;1.60;;
33162;SDS011;29282;45.656;11.302;2022-12-11T06:06:22;2.20;;;2.00;;
33162;SDS011;29282;45.656;11.302;2022-12-11T06:08:49;1.80;;;1.70;;
33162;SDS011;29282;45.656;11.302;2022-12-11T06:11:15;2.08;;;1.88;;
33162;SDS011;29282;45.656;11.302;2022-12-11T06:13:40;1.67;;;1.58;;
33162;SDS011;29282;45.656;11.302;2022-12-11T06:16:07;2.05;;;1.85;;
33162;SDS011;29282;45.656;11.302;2022-12-11T06:18:34;2.03;;;1.70;;
33162;SDS011;29282;45.656;11.302;2022-12-11T06:21:01;1.85;;;1.55;;
33162;SDS011;29282;45.656;11.302;2022-12-11T06:23:34;1.67;;;1.50;;
33162;SDS011;29282;45.656;11.302;2022-12-11T06:26:02;1.90;;;1.70;;
33162;SDS011;29282;45.656;11.302;2022-12-11T06:28:27;2.00;;;1.80;;
33162;SDS011;29282;45.656;11.302;2022-12-11T06:30:53;1.75;;;1.65;;
33162;SDS011;29282;45.656;11.302;2022-12-11T06:33:18;1.70;;;1.60;;
33162;SDS011;29282;45.656;11.302;2022-12-11T06:35:44;1.85;;;1.75;;
33162;SDS011;29282;45.656;11.302;2022-12-11T06:38:09;2.85;;;1.80;;
33162;SDS011;29282;45.656;11.302;2022-12-11T06:40:35;1.58;;;1.48;;
33162;SDS011;29282;45.656;11.302;2022-12-11T06:43:00;1.70;;;1.60;;
33162;SDS011;29282;45.656;11.302;2022-12-11T06:45:26;1.77;;;1.52;;
33162;SDS011;29282;45.656;11.302;2022-12-11T06:47:51;1.60;;;1.50;;
33162;SDS011;29282;45.656;11.302;2022-12-11T06:50:17;1.83;;;1.60;;
33162;SDS011;29282;45.656;11.302;2022-12-11T06:52:42;1.80;;;1.60;;
33162;SDS011;29282;45.656;11.302;2022-12-11T06:55:08;1.67;;;1.58;;
33162;SDS011;29282;45.656;11.302;2022-12-11T06:57:33;1.98;;;1.65;;
33162;SDS011;29282;45.656;11.302;2022-12-11T06:59:59;1.65;;;1.50;;
33162;SDS011;29282;45.656;11.302;2022-12-11T07:02:24;1.63;;;1.52;;
33162;SDS011;29282;45.656;11.302;2022-12-11T07:04:50;1.80;;;1.70;;
33162;SDS011;29282;45.656;11.302;2022-12-11T07:07:16;1.33;;;1.23;;
33162;SDS011;29282;45.656;11.302;2022-12-11T07:09:43;2.35;;;1.70;;
33162;SDS011;29282;45.656;11.302;2022-12-11T07:12:09;2.05;;;1.63;;
33162;SDS011;29282;45.656;11.302;2022-12-11T07:14:38;3.03;;;1.63;;
33162;SDS011;29282;45.656;11.302;2022-12-11T07:17:04;5.35;;;1.70;;
33162;SDS011;29282;45.656;11.302;2022-12-11T07:19:29;2.83;;;1.50;;
33162;SDS011;29282;45.656;11.302;2022-12-11T07:21:55;3.10;;;1.50;;
33162;SDS011;29282;45.656;11.302;2022-12-11T07:24:20;3.38;;;1.30;;
33162;SDS011;29282;45.656;11.302;2022-12-11T07:26:46;1.42;;;1.33;;
33162;SDS011;29282;45.656;11.302;2022-12-11T07:29:11;1.60;;;1.50;;
33162;SDS011;29282;45.656;11.302;2022-12-11T07:31:37;1.50;;;1.40;;
33162;SDS011;29282;45.656;11.302;2022-12-11T07:34:04;2.63;;;1.33;;
33162;SDS011;29282;45.656;11.302;2022-12-11T07:36:31;2.83;;;1.35;;
33162;SDS011;29282;45.656;11.302;2022-12-11T07:38:57;3.85;;;1.30;;
33162;SDS011;29282;45.656;11.302;2022-12-11T07:41:23;1.55;;;1.20;;
33162;SDS011;29282;45.656;11.302;2022-12-11T07:43:51;3.05;;;1.23;;
33162;SDS011;29282;45.656;11.302;2022-12-11T07:46:19;2.38;;;1.40;;
33162;SDS011;29282;45.656;11.302;2022-12-11T07:48:46;1.30;;;1.20;;
33162;SDS011;29282;45.656;11.302;2022-12-11T07:51:13;2.35;;;1.10;;
33162;SDS011;29282;45.656;11.302;2022-12-11T07:53:45;1.20;;;1.10;;
33162;SDS011;29282;45.656;11.302;2022-12-11T07:56:13;3.72;;;1.27;;
33162;SDS011;29282;45.656;11.302;2022-12-11T07:58:39;3.03;;;1.40;;
33162;SDS011;29282;45.656;11.302;2022-12-11T08:01:08;2.05;;;1.40;;
33162;SDS011;29282;45.656;11.302;2022-12-11T08:03:36;3.72;;;1.70;;
33162;SDS011;29282;45.656;11.302;2022-12-11T08:06:01;1.92;;;1.50;;
33162;SDS011;29282;45.656;11.302;2022-12-11T08:08:27;3.58;;;1.70;;
33162;SDS011;29282;45.656;11.302;2022-12-11T08:10:52;2.63;;;1.63;;
33162;SDS011;29282;45.656;11.302;2022-12-11T08:13:18;2.72;;;2.00;;
33162;SDS011;29282;45.656;11.302;2022-12-11T08:15:43;3.10;;;2.20;;
33162;SDS011;29282;45.656;11.302;2022-12-11T08:18:10;4.05;;;2.38;;
33162;SDS011;29282;45.656;11.302;2022-12-11T08:20:38;2.80;;;2.30;;
33162;SDS011;29282;45.656;11.302;2022-12-11T08:23:04;2.55;;;2.13;;
33162;SDS011;29282;45.656;11.302;2022-12-11T08:25:29;5.13;;;2.70;;
33162;SDS011;29282;45.656;11.302;2022-12-11T08:27:55;4.55;;;2.85;;
33162;SDS011;29282;45.656;11.302;2022-12-11T08:30:20;6.30;;;3.05;;
33162;SDS011;29282;45.656;11.302;2022-12-11T08:32:46;4.25;;;2.63;;
33162;SDS011;29282;45.656;11.302;2022-12-11T08:35:11;5.15;;;2.95;;
33162;SDS011;29282;45.656;11.302;2022-12-11T08:37:37;5.40;;;2.70;;
33162;SDS011;29282;45.656;11.302;2022-12-11T08:40:03;5.47;;;3.00;;
33162;SDS011;29282;45.656;11.302;2022-12-11T08:42:29;3.65;;;2.70;;
33162;SDS011;29282;45.656;11.302;2022-12-11T08:44:55;3.88;;;2.90;;
33162;SDS011;29282;45.656;11.302;2022-12-11T08:47:20;7.55;;;3.13;;
33162;SDS011;29282;45.656;11.302;2022-12-11T08:49:47;5.50;;;3.00;;
33162;SDS011;29282;45.656;11.302;2022-12-11T08:52:12;4.07;;;2.75;;
33162;SDS011;29282;45.656;11.302;2022-12-11T08:54:38;3.55;;;2.70;;
33162;SDS011;29282;45.656;11.302;2022-12-11T08:57:04;8.27;;;3.22;;
33162;SDS011;29282;45.656;11.302;2022-12-11T08:59:29;4.97;;;3.00;;
33162;SDS011;29282;45.656;11.302;2022-12-11T09:01:55;5.30;;;2.80;;
33162;SDS011;29282;45.656;11.302;2022-12-11T09:04:21;3.35;;;2.60;;
33162;SDS011;29282;45.656;11.302;2022-12-11T09:06:47;5.65;;;2.92;;
33162;SDS011;29282;45.656;11.302;2022-12-11T09:09:13;4.57;;;2.67;;
33162;SDS011;29282;45.656;11.302;2022-12-11T09:11:39;4.93;;;2.78;;
33162;SDS011;29282;45.656;11.302;2022-12-11T09:14:04;4.85;;;2.38;;
33162;SDS011;29282;45.656;11.302;2022-12-11T09:16:30;4.70;;;2.50;;
33162;SDS011;29282;45.656;11.302;2022-12-11T09:18:57;4.40;;;2.50;;
33162;SDS011;29282;45.656;11.302;2022-12-11T09:21:24;4.10;;;2.63;;
33162;SDS011;29282;45.656;11.302;2022-12-11T09:23:54;2.83;;;2.22;;
33162;SDS011;29282;45.656;11.302;2022-12-11T09:26:20;4.15;;;2.58;;
33162;SDS011;29282;45.656;11.302;2022-12-11T09:28:46;3.20;;;2.53;;
33162;SDS011;29282;45.656;11.302;2022-12-11T09:31:16;5.63;;;2.60;;
33162;SDS011;29282;45.656;11.302;2022-12-11T09:33:48;4.05;;;2.58;;
33162;SDS011;29282;45.656;11.302;2022-12-11T09:36:14;5.40;;;2.67;;
33162;SDS011;29282;45.656;11.302;2022-12-11T09:38:39;5.85;;;2.97;;
33162;SDS011;29282;45.656;11.302;2022-12-11T09:41:25;3.33;;;2.72;;
33162;SDS011;29282;45.656;11.302;2022-12-11T09:44:39;3.70;;;2.60;;
33162;SDS011;29282;45.656;11.302;2022-12-11T09:47:11;3.53;;;2.45;;
33162;SDS011;29282;45.656;11.302;2022-12-11T09:49:44;3.90;;;2.20;;
33162;SDS011;29282;45.656;11.302;2022-12-11T09:54:42;4.10;;;2.50;;
33162;SDS011;29282;45.656;11.302;2022-12-11T09:57:50;6.15;;;2.50;;
33162;SDS011;29282;45.656;11.302;2022-12-11T10:08:58;6.05;;;2.50;;
33162;SDS011;29282;45.656;11.302;2022-12-11T10:11:36;5.90;;;2.47;;
33162;SDS011;29282;45.656;11.302;2022-12-11T10:17:12;7.22;;;2.50;;
33162;SDS011;29282;45.656;11.302;2022-12-11T10:19:44;9.48;;;3.03;;
33162;SDS011;29282;45.656;11.302;2022-12-11T10:22:13;4.63;;;2.53;;
33162;SDS011;29282;45.656;11.302;2022-12-11T10:24:49;6.63;;;2.83;;
33162;SDS011;29282;45.656;11.302;2022-12-11T10:27:23;4.30;;;2.50;;
33162;SDS011;29282;45.656;11.302;2022-12-11T10:32:46;4.68;;;2.67;;
33162;SDS011;29282;45.656;11.302;2022-12-11T10:38:11;6.85;;;2.72;;
33162;SDS011;29282;45.656;11.302;2022-12-11T10:40:40;7.07;;;2.60;;
33162;SDS011;29282;45.656;11.302;2022-12-11T10:43:09;7.85;;;2.45;;
33162;SDS011;29282;45.656;11.302;2022-12-11T10:45:34;7.03;;;2.05;;
33162;SDS011;29282;45.656;11.302;2022-12-11T10:48:19;6.68;;;2.75;;
33162;SDS011;29282;45.656;11.302;2022-12-11T10:50:54;8.25;;;2.60;;
33162;SDS011;29282;45.656;11.302;2022-12-11T10:53:21;5.47;;;2.45;;
33162;SDS011;29282;45.656;11.302;2022-12-11T10:55:48;9.00;;;2.85;;
33162;SDS011;29282;45.656;11.302;2022-12-11T10:58:22;11.82;;;3.45;;
33162;SDS011;29282;45.656;11.302;2022-12-11T11:01:03;13.52;;;3.30;;
33162;SDS011;29282;45.656;11.302;2022-12-11T11:04:02;25.02;;;4.40;;
33162;SDS011;29282;45.656;11.302;2022-12-11T11:06:38;23.77;;;4.10;;
33162;SDS011;29282;45.656;11.302;2022-12-11T11:09:25;29.63;;;4.50;;
33162;SDS011;29282;45.656;11.302;2022-12-11T11:11:58;23.38;;;4.22;;
33162;SDS011;29282;45.656;11.302;2022-12-11T11:14:24;37.25;;;4.68;;
33162;SDS011;29282;45.656;11.302;2022-12-11T11:16:50;32.20;;;4.80;;
33162;SDS011;29282;45.656;11.302;2022-12-11T11:19:28;32.97;;;4.65;;
33162;SDS011;29282;45.656;11.302;2022-12-11T11:21:58;23.90;;;3.47;;
33162;SDS011;29282;45.656;11.302;2022-12-11T11:24:35;19.40;;;3.78;;
33162;SDS011;29282;45.656;11.302;2022-12-11T11:30:03;18.00;;;3.53;;
33162;SDS011;29282;45.656;11.302;2022-12-11T11:32:32;24.35;;;4.18;;
33162;SDS011;29282;45.656;11.302;2022-12-11T11:37:38;38.92;;;4.93;;
33162;SDS011;29282;45.656;11.302;2022-12-11T11:40:16;16.05;;;3.78;;
33162;SDS011;29282;45.656;11.302;2022-12-11T11:48:32;18.70;;;3.75;;
33162;SDS011;29282;45.656;11.302;2022-12-11T11:50:58;13.52;;;4.13;;
33162;SDS011;29282;45.656;11.302;2022-12-11T11:53:32;20.55;;;3.95;;
33162;SDS011;29282;45.656;11.302;2022-12-11T11:59:00;13.82;;;3.60;;
33162;SDS011;29282;45.656;11.302;2022-12-11T12:01:40;8.88;;;2.60;;
33162;SDS011;29282;45.656;11.302;2022-12-11T12:04:07;18.13;;;3.83;;
33162;SDS011;29282;45.656;11.302;2022-12-11T12:31:29;8.52;;;2.92;;
33162;SDS011;29282;45.656;11.302;2022-12-11T12:34:24;15.05;;;3.50;;
33162;SDS011;29282;45.656;11.302;2022-12-11T12:37:09;10.73;;;3.08;;
33162;SDS011;29282;45.656;11.302;2022-12-11T12:40:09;16.73;;;3.92;;
33162;SDS011;29282;45.656;11.302;2022-12-11T12:48:46;8.90;;;2.75;;
33162;SDS011;29282;45.656;11.302;2022-12-11T12:51:12;6.28;;;2.70;;
33162;SDS011;29282;45.656;11.302;2022-12-11T12:53:40;9.18;;;2.95;;
33162;SDS011;29282;45.656;11.302;2022-12-11T12:56:13;11.63;;;3.15;;
33162;SDS011;29282;45.656;11.302;2022-12-11T12:58:41;9.13;;;2.65;;
33162;SDS011;29282;45.656;11.302;2022-12-11T13:03:58;11.30;;;3.38;;
33162;SDS011;29282;45.656;11.302;2022-12-11T13:06:39;9.82;;;3.08;;
33162;SDS011;29282;45.656;11.302;2022-12-11T13:11:51;7.93;;;2.97;;
33162;SDS011;29282;45.656;11.302;2022-12-11T13:16:48;4.93;;;2.53;;
33162;SDS011;29282;45.656;11.302;2022-12-11T13:21:41;10.35;;;2.92;;
33162;SDS011;29282;45.656;11.302;2022-12-11T13:24:23;6.85;;;2.08;;
33162;SDS011;29282;45.656;11.302;2022-12-11T13:26:54;6.60;;;2.50;;
33162;SDS011;29282;45.656;11.302;2022-12-11T13:29:30;10.30;;;2.97;;
33162;SDS011;29282;45.656;11.302;2022-12-11T13:32:04;6.68;;;2.45;;
33162;SDS011;29282;45.656;11.302;2022-12-11T13:37:27;7.55;;;2.20;;
33162;SDS011;29282;45.656;11.302;2022-12-11T13:39:54;8.38;;;2.42;;
33162;SDS011;29282;45.656;11.302;2022-12-11T13:42:24;6.93;;;2.53;;
33162;SDS011;29282;45.656;11.302;2022-12-11T13:44:55;7.95;;;2.40;;
33162;SDS011;29282;45.656;11.302;2022-12-11T13:47:21;10.80;;;2.33;;
33162;SDS011;29282;45.656;11.302;2022-12-11T13:49:51;7.47;;;2.33;;
33162;SDS011;29282;45.656;11.302;2022-12-11T13:52:20;7.13;;;2.70;;
33162;SDS011;29282;45.656;11.302;2022-12-11T13:54:53;13.15;;;2.80;;
33162;SDS011;29282;45.656;11.302;2022-12-11T13:57:21;5.25;;;2.38;;
33162;SDS011;29282;45.656;11.302;2022-12-11T13:59:57;7.80;;;2.15;;
33162;SDS011;29282;45.656;11.302;2022-12-11T14:02:33;10.50;;;2.67;;
33162;SDS011;29282;45.656;11.302;2022-12-11T14:05:07;8.98;;;2.35;;
33162;SDS011;29282;45.656;11.302;2022-12-11T14:07:36;5.32;;;2.40;;
33162;SDS011;29282;45.656;11.302;2022-12-11T14:10:20;9.23;;;2.13;;
33162;SDS011;29282;45.656;11.302;2022-12-11T14:15:19;7.97;;;2.53;;
33162;SDS011;29282;45.656;11.302;2022-12-11T14:17:46;5.90;;;2.80;;
33162;SDS011;29282;45.656;11.302;2022-12-11T14:20:22;6.85;;;2.40;;
33162;SDS011;29282;45.656;11.302;2022-12-11T14:22:50;9.10;;;2.50;;
33162;SDS011;29282;45.656;11.302;2022-12-11T14:25:20;14.63;;;2.72;;
33162;SDS011;29282;45.656;11.302;2022-12-11T14:27:49;6.68;;;2.72;;
33162;SDS011;29282;45.656;11.302;2022-12-11T14:30:21;7.70;;;2.47;;
33162;SDS011;29282;45.656;11.302;2022-12-11T14:32:55;8.05;;;2.70;;
33162;SDS011;29282;45.656;11.302;2022-12-11T14:38:06;8.10;;;2.55;;
33162;SDS011;29282;45.656;11.302;2022-12-11T14:40:41;4.55;;;2.35;;
33162;SDS011;29282;45.656;11.302;2022-12-11T14:43:12;10.23;;;2.20;;
33162;SDS011;29282;45.656;11.302;2022-12-11T14:45:45;7.47;;;2.00;;
33162;SDS011;29282;45.656;11.302;2022-12-11T14:48:19;6.07;;;2.28;;
33162;SDS011;29282;45.656;11.302;2022-12-11T14:50:48;5.57;;;1.92;;
33162;SDS011;29282;45.656;11.302;2022-12-11T14:55:50;7.60;;;2.20;;
33162;SDS011;29282;45.656;11.302;2022-12-11T14:58:21;4.75;;;2.40;;
33162;SDS011;29282;45.656;11.302;2022-12-11T15:00:56;3.75;;;2.00;;
33162;SDS011;29282;45.656;11.302;2022-12-11T15:03:33;4.63;;;2.30;;
33162;SDS011;29282;45.656;11.302;2022-12-11T15:06:01;3.85;;;2.00;;
33162;SDS011;29282;45.656;11.302;2022-12-11T15:08:45;5.07;;;2.17;;
33162;SDS011;29282;45.656;11.302;2022-12-11T15:11:11;8.07;;;2.17;;
33162;SDS011;29282;45.656;11.302;2022-12-11T15:13:53;3.38;;;2.00;;
33162;SDS011;29282;45.656;11.302;2022-12-11T15:16:22;4.65;;;2.20;;
33162;SDS011;29282;45.656;11.302;2022-12-11T15:18:49;3.78;;;2.10;;
33162;SDS011;29282;45.656;11.302;2022-12-11T15:21:17;4.85;;;2.28;;
33162;SDS011;29282;45.656;11.302;2022-12-11T15:23:56;2.65;;;1.90;;
33162;SDS011;29282;45.656;11.302;2022-12-11T15:26:32;4.43;;;2.08;;
33162;SDS011;29282;45.656;11.302;2022-12-11T15:29:03;7.22;;;2.10;;
33162;SDS011;29282;45.656;11.302;2022-12-11T15:31:31;5.30;;;2.03;;
33162;SDS011;29282;45.656;11.302;2022-12-11T15:33:59;3.75;;;1.92;;
33162;SDS011;29282;45.656;11.302;2022-12-11T15:38:54;7.38;;;2.30;;
33162;SDS011;29282;45.656;11.302;2022-12-11T15:41:20;4.70;;;2.20;;
33162;SDS011;29282;45.656;11.302;2022-12-11T15:43:48;5.45;;;1.92;;
33162;SDS011;29282;45.656;11.302;2022-12-11T15:46:16;3.28;;;1.90;;
33162;SDS011;29282;45.656;11.302;2022-12-11T15:48:42;5.97;;;2.08;;
33162;SDS011;29282;45.656;11.302;2022-12-11T15:51:08;4.47;;;2.25;;
33162;SDS011;29282;45.656;11.302;2022-12-11T15:53:34;3.50;;;1.83;;
33162;SDS011;29282;45.656;11.302;2022-12-11T15:55:59;4.47;;;2.35;;
33162;SDS011;29282;45.656;11.302;2022-12-11T15:58:25;4.57;;;2.28;;
33162;SDS011;29282;45.656;11.302;2022-12-11T16:00:51;5.18;;;2.17;;
33162;SDS011;29282;45.656;11.302;2022-12-11T16:03:18;4.47;;;2.38;;
33162;SDS011;29282;45.656;11.302;2022-12-11T16:05:47;8.43;;;2.45;;
33162;SDS011;29282;45.656;11.302;2022-12-11T16:08:14;6.00;;;2.22;;
33162;SDS011;29282;45.656;11.302;2022-12-11T16:10:43;4.30;;;2.00;;
33162;SDS011;29282;45.656;11.302;2022-12-11T16:13:10;3.15;;;2.08;;
33162;SDS011;29282;45.656;11.302;2022-12-11T16:15:40;4.70;;;2.17;;
33162;SDS011;29282;45.656;11.302;2022-12-11T16:18:11;6.03;;;2.00;;
33162;SDS011;29282;45.656;11.302;2022-12-11T16:20:39;4.80;;;2.00;;
33162;SDS011;29282;45.656;11.302;2022-12-11T16:23:06;6.53;;;2.60;;
33162;SDS011;29282;45.656;11.302;2022-12-11T16:25:32;6.93;;;2.55;;
33162;SDS011;29282;45.656;11.302;2022-12-11T16:27:59;4.55;;;2.17;;
33162;SDS011;29282;45.656;11.302;2022-12-11T16:30:26;9.57;;;2.30;;
33162;SDS011;29282;45.656;11.302;2022-12-11T16:32:52;6.40;;;2.38;;
33162;SDS011;29282;45.656;11.302;2022-12-11T16:35:19;2.83;;;2.10;;
33162;SDS011;29282;45.656;11.302;2022-12-11T16:37:49;5.93;;;2.40;;